createdAt,value
2019-01-25T00:01:14.047Z,100224.53
2019-01-25T00:03:42.612Z,100224.00
2019-01-25T00:06:11.214Z,100228.71
2019-01-25T00:08:39.814Z,100229.73
2019-01-25T00:11:08.387Z,100234.11
2019-01-25T00:13:37.011Z,100235.06
2019-01-25T00:16:05.687Z,100232.01
2019-01-25T00:18:34.275Z,100229.73
2019-01-25T00:21:02.851Z,100234.17
2019-01-25T00:23:31.765Z,100237.06
2019-01-25T00:26:00.358Z,100242.47
2019-01-25T00:28:28.966Z,100239.86
2019-01-25T00:30:57.532Z,100246.42
2019-01-25T00:33:26.402Z,100239.58
2019-01-25T00:35:55.000Z,100245.59
2019-01-25T00:38:23.563Z,100241.63
2019-01-25T00:40:52.193Z,100244.36
2019-01-25T00:43:20.752Z,100242.59
2019-01-25T00:45:49.328Z,100249.86
2019-01-25T00:48:17.932Z,100242.53
2019-01-25T00:50:46.498Z,100242.59
2019-01-25T00:53:15.142Z,100242.95
2019-01-25T00:55:43.746Z,100244.37
2019-01-25T00:58:12.652Z,100247.27
2019-01-25T01:00:41.243Z,100239.67
2019-01-25T01:03:09.856Z,100247.25
2019-01-25T01:05:38.815Z,100249.36
2019-01-25T01:08:07.726Z,100249.08
2019-01-25T01:10:36.398Z,100251.50
2019-01-25T01:13:05.148Z,100252.94
2019-01-25T01:15:33.716Z,100254.28
2019-01-25T01:18:02.304Z,100254.91
2019-01-25T01:20:31.249Z,100256.00
2019-01-25T01:22:59.908Z,100257.07
2019-01-25T01:25:28.549Z,100261.47
2019-01-25T01:27:57.141Z,100260.52
2019-01-25T01:30:26.000Z,100254.77
2019-01-25T01:32:55.046Z,100251.49
2019-01-25T01:35:23.632Z,100244.87
2019-01-25T01:37:52.303Z,100253.41
2019-01-25T01:40:26.848Z,100250.87
2019-01-25T01:42:55.446Z,100249.38
2019-01-25T01:45:24.079Z,100239.40
2019-01-25T01:47:52.647Z,100246.31
2019-01-25T01:50:21.304Z,100253.41
2019-01-25T01:52:50.913Z,100249.72
2019-01-25T01:55:19.521Z,100252.91
2019-01-25T01:58:00.764Z,100245.34
2019-01-25T02:00:29.389Z,100244.46
2019-01-25T02:02:58.351Z,100241.86
2019-01-25T02:05:27.265Z,100245.34
2019-01-25T02:07:55.869Z,100245.55
2019-01-25T02:10:29.597Z,100243.30
2019-01-25T02:12:58.058Z,100248.88
2019-01-25T02:15:27.146Z,100248.14
2019-01-25T02:17:55.747Z,100251.30
2019-01-25T02:20:29.298Z,100253.55
2019-01-25T02:22:58.409Z,100251.09
2019-01-25T02:25:26.970Z,100260.32
2019-01-25T02:27:55.951Z,100251.90
2019-01-25T02:30:25.951Z,100260.98
2019-01-25T02:32:55.292Z,100254.08
2019-01-25T02:35:24.534Z,100259.55
2019-01-25T02:37:53.127Z,100260.53
2019-01-25T02:40:24.262Z,100257.23
2019-01-25T02:42:53.315Z,100254.36
2019-01-25T02:45:21.940Z,100254.08
2019-01-25T02:47:50.527Z,100249.16
2019-01-25T02:50:19.884Z,100254.01
2019-01-25T02:52:49.610Z,100257.09
2019-01-25T02:55:18.996Z,100260.25
2019-01-25T02:57:49.428Z,100254.04
2019-01-25T03:00:20.298Z,100256.28
2019-01-25T03:02:49.311Z,100261.41
2019-01-25T03:05:18.683Z,100264.61
2019-01-25T03:07:47.284Z,100257.80
2019-01-25T03:10:16.211Z,100261.94
2019-01-25T03:12:44.804Z,100259.41
2019-01-25T03:15:15.692Z,100258.25
2019-01-25T03:17:44.270Z,100256.95
2019-01-25T03:20:12.908Z,100254.14
2019-01-25T03:22:41.503Z,100260.63
2019-01-25T03:25:12.007Z,100256.60
2019-01-25T03:27:40.644Z,100259.41
2019-01-25T03:30:11.468Z,100261.41
2019-01-25T03:32:40.475Z,100259.62
2019-01-25T03:35:09.994Z,100258.17
2019-01-25T03:37:40.874Z,100264.66
2019-01-25T03:40:12.097Z,100261.41
2019-01-25T03:42:40.697Z,100255.52
2019-01-25T03:45:09.551Z,100256.00
2019-01-25T03:47:38.458Z,100263.44
2019-01-25T03:50:08.377Z,100256.59
2019-01-25T03:52:37.259Z,100253.34
2019-01-25T03:55:07.070Z,100254.56
2019-01-25T03:57:35.679Z,100259.09
2019-01-25T04:00:05.486Z,100258.31
2019-01-25T04:02:34.094Z,100258.17
2019-01-25T04:05:03.046Z,100262.63
2019-01-25T04:07:31.938Z,100256.27
2019-01-25T04:10:00.821Z,100263.01
2019-01-25T04:12:29.406Z,100261.11
2019-01-25T04:14:57.962Z,100265.14
2019-01-25T04:17:26.548Z,100254.20
2019-01-25T04:19:55.107Z,100263.14
2019-01-25T04:22:24.672Z,100254.00
2019-01-25T04:24:53.976Z,100259.11
2019-01-25T04:27:23.011Z,100264.66
2019-01-25T04:29:51.700Z,100267.61
2019-01-25T04:32:21.267Z,100259.54
2019-01-25T04:34:49.828Z,100268.98
2019-01-25T04:37:19.669Z,100267.97
2019-01-25T04:39:48.544Z,100271.51
2019-01-25T04:42:20.376Z,100268.97
2019-01-25T04:44:51.876Z,100268.38
2019-01-25T04:47:26.725Z,100276.09
2019-01-25T04:49:55.719Z,100273.28
2019-01-25T04:52:24.603Z,100284.98
2019-01-25T04:54:53.228Z,100277.11
2019-01-25T04:57:22.202Z,100267.58
2019-01-25T04:59:50.788Z,100273.79
2019-01-25T05:02:20.115Z,100275.09
2019-01-25T05:04:48.698Z,100280.63
2019-01-25T05:07:17.644Z,100282.52
2019-01-25T05:09:46.218Z,100283.39
2019-01-25T05:12:14.809Z,100279.84
2019-01-25T05:14:43.360Z,100278.69
2019-01-25T05:17:12.274Z,100275.02
2019-01-25T05:19:41.279Z,100277.11
2019-01-25T05:22:09.861Z,100280.67
2019-01-25T05:24:39.450Z,100282.44
2019-01-25T05:27:08.085Z,100284.03
2019-01-25T05:29:53.939Z,100295.93
2019-01-25T05:32:22.538Z,100299.61
2019-01-25T05:34:51.138Z,100306.09
2019-01-25T05:37:19.717Z,100313.47
2019-01-25T05:39:48.315Z,100322.18
2019-01-25T05:42:16.876Z,100317.36
2019-01-25T05:44:45.776Z,100319.20
2019-01-25T05:47:14.368Z,100318.56
2019-01-25T05:49:42.918Z,100317.77
2019-01-25T05:52:21.008Z,100316.42
2019-01-25T05:54:49.591Z,100316.42
2019-01-25T05:57:18.165Z,100312.94
2019-01-25T05:59:46.765Z,100316.97
2019-01-25T06:02:15.721Z,100327.08
2019-01-25T06:04:44.292Z,100322.75
2019-01-25T06:07:12.905Z,100334.80
2019-01-25T06:09:41.507Z,100334.89
2019-01-25T06:12:10.133Z,100313.88
2019-01-25T06:14:38.693Z,100316.55
2019-01-25T06:17:07.283Z,100313.12
2019-01-25T06:19:38.677Z,100314.69
2019-01-25T06:22:07.235Z,100316.20
2019-01-25T06:24:35.829Z,100322.09
2019-01-25T06:27:04.406Z,100322.85
2019-01-25T06:29:34.426Z,100318.42
2019-01-25T06:32:03.393Z,100314.38
2019-01-25T06:34:31.969Z,100317.36
2019-01-25T06:37:00.569Z,100318.87
2019-01-25T06:39:29.128Z,100316.75
2019-01-25T06:41:57.690Z,100320.25
2019-01-25T06:44:26.298Z,100324.98
2019-01-25T06:46:54.859Z,100327.31
2019-01-25T06:49:23.423Z,100329.91
2019-01-25T06:51:52.011Z,100341.23
2019-01-25T06:54:20.580Z,100339.72
2019-01-25T06:56:49.182Z,100346.41
2019-01-25T06:59:34.104Z,100339.86
2019-01-25T07:02:11.898Z,100335.48
2019-01-25T07:04:40.495Z,100337.41
2019-01-25T07:07:18.245Z,100332.86
2019-01-25T07:09:46.862Z,100327.83
2019-01-25T07:12:15.469Z,100329.20
2019-01-25T07:14:53.555Z,100330.37
2019-01-25T07:17:22.773Z,100326.45
2019-01-25T07:19:51.369Z,100330.02
2019-01-25T07:22:30.442Z,100332.94
2019-01-25T07:24:59.001Z,100331.27
2019-01-25T07:27:27.598Z,100336.52
2019-01-25T07:29:56.167Z,100335.37
2019-01-25T07:32:24.796Z,100334.08
2019-01-25T07:34:53.365Z,100340.80
2019-01-25T07:37:22.590Z,100344.16
2019-01-25T07:39:51.161Z,100340.41
2019-01-25T07:42:20.041Z,100339.05
2019-01-25T07:44:49.057Z,100346.92
2019-01-25T07:47:17.721Z,100347.05
2019-01-25T07:49:46.768Z,100348.43
2019-01-25T07:52:15.972Z,100353.76
2019-01-25T07:54:44.572Z,100357.48
2019-01-25T07:57:13.193Z,100357.16
2019-01-25T07:59:42.102Z,100358.73
2019-01-25T08:02:10.709Z,100350.86
2019-01-25T08:04:39.353Z,100345.48
2019-01-25T08:07:07.901Z,100360.21
2019-01-25T08:09:36.529Z,100364.11
2019-01-25T08:12:07.646Z,100355.81
2019-01-25T08:14:35.502Z,100358.08
2019-01-25T08:17:04.105Z,100352.41
2019-01-25T08:19:32.757Z,100359.52
2019-01-25T08:22:01.371Z,100364.14
2019-01-25T08:24:29.938Z,100367.66
2019-01-25T08:26:58.930Z,100363.89
2019-01-25T08:29:29.773Z,100367.79
2019-01-25T08:32:06.442Z,100358.19
2019-01-25T08:34:35.057Z,100358.98
2019-01-25T08:37:04.728Z,100355.81
2019-01-25T08:39:34.351Z,100356.14
2019-01-25T08:42:03.271Z,100340.17
2019-01-25T08:44:32.645Z,100341.06
2019-01-25T08:47:02.150Z,100343.94
2019-01-25T08:49:31.559Z,100349.78
2019-01-25T08:52:03.724Z,100345.70
2019-01-25T08:54:35.340Z,100345.98
2019-01-25T08:57:04.420Z,100342.44
2019-01-25T08:59:34.049Z,100351.66
2019-01-25T09:02:03.839Z,100351.39
2019-01-25T09:04:33.527Z,100361.63
2019-01-25T09:07:04.248Z,100359.34
2019-01-25T09:09:34.338Z,100349.10
2019-01-25T09:12:03.993Z,100344.19
2019-01-25T09:14:32.895Z,100347.07
2019-01-25T09:17:01.484Z,100345.49
2019-01-25T09:19:30.036Z,100347.28
2019-01-25T09:21:59.684Z,100343.38
2019-01-25T09:24:28.251Z,100351.81
2019-01-25T09:26:56.822Z,100358.23
2019-01-25T09:29:25.423Z,100365.98
2019-01-25T09:31:54.287Z,100358.09
2019-01-25T09:34:23.155Z,100355.52
2019-01-25T09:36:52.415Z,100351.45
2019-01-25T09:39:21.367Z,100349.17
2019-01-25T09:41:49.996Z,100346.05
2019-01-25T09:44:19.358Z,100351.52
2019-01-25T09:46:49.036Z,100355.14
2019-01-25T09:49:17.642Z,100366.21
2019-01-25T09:51:46.046Z,100356.45
2019-01-25T09:54:14.619Z,100348.58
2019-01-25T09:56:44.400Z,100350.16
2019-01-25T09:59:12.976Z,100352.61
2019-01-25T10:01:41.545Z,100357.39
2019-01-25T10:04:10.508Z,100359.81
2019-01-25T10:06:39.503Z,100345.35
2019-01-25T10:09:09.912Z,100334.28
2019-01-25T10:11:40.567Z,100340.44
2019-01-25T10:14:09.153Z,100340.09
2019-01-25T10:16:38.072Z,100336.94
2019-01-25T10:19:06.663Z,100335.43
2019-01-25T10:21:35.260Z,100329.80
2019-01-25T10:24:03.838Z,100331.94
2019-01-25T10:26:32.775Z,100326.05
2019-01-25T10:29:01.684Z,100324.22
2019-01-25T10:31:30.596Z,100319.28
2019-01-25T10:33:59.168Z,100324.10
2019-01-25T10:36:27.749Z,100328.27
2019-01-25T10:38:56.318Z,100325.20
2019-01-25T10:41:24.914Z,100328.06
2019-01-25T10:43:53.550Z,100326.74
2019-01-25T10:46:23.270Z,100326.74
2019-01-25T10:48:52.578Z,100333.59
2019-01-25T10:51:21.855Z,100336.80
2019-01-25T10:53:50.418Z,100328.69
2019-01-25T10:56:19.352Z,100326.75
2019-01-25T10:58:47.999Z,100307.56
2019-01-25T11:01:17.004Z,100307.56
2019-01-25T11:03:46.766Z,100303.65
2019-01-25T11:06:15.417Z,100311.42
2019-01-25T11:08:44.006Z,100298.09
2019-01-25T11:11:12.603Z,100293.64
2019-01-25T11:13:42.215Z,100287.73
2019-01-25T11:16:12.069Z,100287.73
2019-01-25T11:18:42.340Z,100290.94
2019-01-25T11:21:11.481Z,100287.34
2019-01-25T11:23:40.762Z,100275.84
2019-01-25T11:26:11.999Z,100277.02
2019-01-25T11:28:41.466Z,100268.90
2019-01-25T11:31:10.029Z,100266.77
2019-01-25T11:33:39.213Z,100261.08
2019-01-25T11:36:09.004Z,100257.77
2019-01-25T11:38:41.590Z,100255.02
2019-01-25T11:41:11.019Z,100255.50
2019-01-25T11:43:41.088Z,100249.47
2019-01-25T11:46:09.688Z,100257.23
2019-01-25T11:48:41.043Z,100257.39
2019-01-25T11:51:10.002Z,100261.50
2019-01-25T11:53:38.860Z,100247.59
2019-01-25T11:56:07.768Z,100238.09
2019-01-25T11:58:36.649Z,100242.84
2019-01-25T12:01:06.675Z,100245.27
2019-01-25T12:03:35.662Z,100242.16
2019-01-25T12:06:05.065Z,100238.73
2019-01-25T12:08:34.038Z,100236.30
2019-01-25T12:11:05.008Z,100237.66
2019-01-25T12:13:34.287Z,100239.97
2019-01-25T12:16:04.074Z,100238.48
2019-01-25T12:18:34.348Z,100237.42
2019-01-25T12:21:03.902Z,100228.97
2019-01-25T12:23:33.456Z,100227.65
2019-01-25T12:26:03.106Z,100223.19
2019-01-25T12:28:32.606Z,100221.02
2019-01-25T12:31:02.295Z,100215.78
2019-01-25T12:33:31.706Z,100218.02
2019-01-25T12:36:01.426Z,100214.14
2019-01-25T12:38:31.041Z,100211.83
2019-01-25T12:41:00.916Z,100226.39
2019-01-25T12:43:30.595Z,100218.52
2019-01-25T12:46:03.753Z,100219.85
2019-01-25T12:48:32.048Z,100214.67
2019-01-25T12:51:16.399Z,100214.14
2019-01-25T12:53:44.975Z,100211.48
2019-01-25T12:56:13.878Z,100211.67
2019-01-25T12:58:42.872Z,100213.52
2019-01-25T13:01:12.475Z,100205.11
2019-01-25T13:03:42.127Z,100205.79
2019-01-25T13:06:11.725Z,100200.55
2019-01-25T13:08:42.250Z,100195.84
2019-01-25T13:11:11.559Z,100201.11
2019-01-25T13:13:41.034Z,100202.72
2019-01-25T13:16:10.576Z,100197.92
2019-01-25T13:18:40.848Z,100186.53
2019-01-25T13:21:09.453Z,100189.52
2019-01-25T13:23:38.130Z,100184.20
2019-01-25T13:26:07.027Z,100181.30
2019-01-25T13:28:41.634Z,100177.71
2019-01-25T13:31:07.913Z,100172.92
2019-01-25T13:33:36.980Z,100169.06
2019-01-25T13:36:13.136Z,100175.84
2019-01-25T13:38:42.081Z,100163.03
2019-01-25T13:41:11.751Z,100172.81
2019-01-25T13:43:41.439Z,100176.23
2019-01-25T13:46:11.778Z,100175.04
2019-01-25T13:48:41.566Z,100169.50
2019-01-25T13:51:11.611Z,100159.70
2019-01-25T13:53:41.344Z,100155.33
2019-01-25T13:56:10.347Z,100147.95
2019-01-25T13:58:40.597Z,100146.83
2019-01-25T14:01:10.180Z,100144.06
2019-01-25T14:03:39.745Z,100145.36
2019-01-25T14:06:19.800Z,100139.97
2019-01-25T14:08:48.402Z,100134.05
2019-01-25T14:11:17.811Z,100131.91
2019-01-25T14:13:47.145Z,100129.61
2019-01-25T14:16:17.252Z,100132.94
2019-01-25T14:18:46.911Z,100131.05
2019-01-25T14:21:16.900Z,100128.46
2019-01-25T14:23:46.187Z,100125.78
2019-01-25T14:26:15.571Z,100133.33
2019-01-25T14:28:44.858Z,100124.89
2019-01-25T14:31:13.489Z,100127.27
2019-01-25T14:33:43.156Z,100120.62
2019-01-25T14:36:12.555Z,100116.72
2019-01-25T14:38:41.896Z,100109.88
2019-01-25T14:41:12.245Z,100116.25
2019-01-25T14:43:41.612Z,100114.45
2019-01-25T14:46:11.869Z,100115.13
2019-01-25T14:48:41.425Z,100109.73
2019-01-25T14:51:10.774Z,100102.40
2019-01-25T14:53:39.452Z,100098.37
2019-01-25T14:56:08.019Z,100094.50
2019-01-25T14:58:36.890Z,100094.00
2019-01-25T15:01:05.469Z,100093.38
2019-01-25T15:03:34.059Z,100095.44
2019-01-25T15:06:02.659Z,100101.64
2019-01-25T15:08:31.445Z,100100.82
2019-01-25T15:11:00.051Z,100107.84
2019-01-25T15:13:28.615Z,100109.14
2019-01-25T15:15:57.207Z,100109.50
2019-01-25T15:18:25.758Z,100116.53
2019-01-25T15:20:54.586Z,100109.06
2019-01-25T15:23:23.177Z,100109.43
2019-01-25T15:25:51.731Z,100112.38
2019-01-25T15:28:20.625Z,100107.58
2019-01-25T15:30:49.209Z,100099.50
2019-01-25T15:33:17.767Z,100091.33
2019-01-25T15:35:46.347Z,100095.72
2019-01-25T15:38:14.903Z,100092.61
2019-01-25T15:40:43.537Z,100090.69
2019-01-25T15:43:12.499Z,100092.45
2019-01-25T15:45:41.057Z,100092.59
2019-01-25T15:48:09.652Z,100088.66
2019-01-25T15:50:39.013Z,100090.28
2019-01-25T15:53:07.579Z,100084.84
2019-01-25T15:55:36.740Z,100090.09
2019-01-25T15:58:05.413Z,100096.59
2019-01-25T16:00:33.989Z,100084.05
2019-01-25T16:03:02.550Z,100089.92
2019-01-25T16:05:31.138Z,100085.54
2019-01-25T16:07:59.720Z,100087.33
2019-01-25T16:10:28.603Z,100087.83
2019-01-25T16:12:57.167Z,100078.36
2019-01-25T16:15:28.254Z,100079.98
2019-01-25T16:17:56.933Z,100078.67
2019-01-25T16:20:25.489Z,100070.03
2019-01-25T16:22:54.129Z,100060.59
2019-01-25T16:25:25.275Z,100059.44
2019-01-25T16:27:53.835Z,100072.70
2019-01-25T16:30:27.835Z,100068.75
2019-01-25T16:32:56.395Z,100063.23
2019-01-25T16:35:24.965Z,100057.01
2019-01-25T16:37:53.559Z,100051.98
2019-01-25T16:40:22.888Z,100044.33
2019-01-25T16:42:51.450Z,100039.92
2019-01-25T16:45:22.745Z,100042.02
2019-01-25T16:47:51.717Z,100034.16
2019-01-25T16:50:23.778Z,100034.66
2019-01-25T16:52:50.618Z,100034.66
2019-01-25T16:55:19.184Z,100031.23
2019-01-25T16:57:47.786Z,100027.17
2019-01-25T17:00:27.847Z,100022.27
2019-01-25T17:02:56.539Z,100022.77
2019-01-25T17:05:25.139Z,100020.84
2019-01-25T17:07:53.730Z,100021.22
2019-01-25T17:10:22.404Z,100025.30
2019-01-25T17:12:50.989Z,100026.10
2019-01-25T17:15:19.563Z,100029.06
2019-01-25T17:17:48.155Z,100018.43
2019-01-25T17:20:21.244Z,100022.00
2019-01-25T17:22:47.774Z,100016.81
2019-01-25T17:25:16.403Z,100016.98
2019-01-25T17:27:45.098Z,100003.13
2019-01-25T17:30:22.325Z,100000.34
2019-01-25T17:32:51.254Z,100002.13
2019-01-25T17:35:19.877Z,100001.33
2019-01-25T17:37:48.831Z,100007.67
2019-01-25T17:40:18.719Z,100012.09
2019-01-25T17:42:47.399Z,100004.10
2019-01-25T17:45:17.650Z,99999.50
2019-01-25T17:47:47.746Z,99995.76
2019-01-25T17:50:19.391Z,99992.19
2019-01-25T17:52:48.360Z,99987.47
2019-01-25T17:55:17.707Z,99990.22
2019-01-25T17:57:46.262Z,99992.69
2019-01-25T18:00:24.960Z,99972.27
2019-01-25T18:02:54.275Z,99973.91
2019-01-25T18:05:23.601Z,99970.33
2019-01-25T18:07:52.898Z,99973.41
2019-01-25T18:10:22.861Z,99965.75
2019-01-25T18:12:51.737Z,99966.25
2019-01-25T18:15:20.308Z,99969.49
2019-01-25T18:17:48.891Z,99965.27
2019-01-25T18:20:17.576Z,99965.43
2019-01-25T18:22:46.136Z,99961.02
2019-01-25T18:25:18.323Z,99946.33
2019-01-25T18:27:50.605Z,99947.63
2019-01-25T18:30:38.356Z,99936.55
2019-01-25T18:33:06.928Z,99936.05
2019-01-25T18:35:35.477Z,99931.33
2019-01-25T18:38:04.129Z,99937.34
2019-01-25T18:40:32.760Z,99930.36
2019-01-25T18:43:02.105Z,99930.02
2019-01-25T18:45:31.453Z,99914.53
2019-01-25T18:48:01.269Z,99915.34
2019-01-25T18:50:31.005Z,99915.00
2019-01-25T18:53:00.229Z,99903.94
2019-01-25T18:55:29.848Z,99895.94
2019-01-25T18:58:00.706Z,99882.55
2019-01-25T19:00:30.994Z,99879.44
2019-01-25T19:03:00.297Z,99872.10
2019-01-25T19:05:29.851Z,99867.85
2019-01-25T19:08:01.020Z,99859.39
2019-01-25T19:10:30.392Z,99848.94
2019-01-25T19:13:01.008Z,99837.00
2019-01-25T19:15:31.109Z,99834.05
2019-01-25T19:18:00.626Z,99832.59
2019-01-25T19:20:29.231Z,99818.70
2019-01-25T19:22:57.803Z,99824.11
2019-01-25T19:25:26.743Z,99815.44
2019-01-25T19:27:55.326Z,99814.10
2019-01-25T19:30:29.802Z,99803.48
2019-01-25T19:32:58.383Z,99804.80
2019-01-25T19:35:26.939Z,99804.49
2019-01-25T19:37:55.489Z,99792.85
2019-01-25T19:40:25.621Z,99788.45
2019-01-25T19:42:54.166Z,99780.09
2019-01-25T19:45:23.058Z,99779.70
2019-01-25T19:47:51.943Z,99768.45
2019-01-25T19:50:20.533Z,99768.77
2019-01-25T19:52:49.969Z,99766.42
2019-01-25T19:55:21.075Z,99760.70
2019-01-25T19:57:50.118Z,99750.88
2019-01-25T20:00:28.471Z,99740.63
2019-01-25T20:02:57.948Z,99745.45
2019-01-25T20:05:29.492Z,99734.37
2019-01-25T20:07:59.575Z,99729.90
2019-01-25T20:10:28.648Z,99719.77
2019-01-25T20:12:58.322Z,99717.09
2019-01-25T20:15:28.332Z,99724.26
2019-01-25T20:17:57.820Z,99710.69
2019-01-25T20:20:34.097Z,99714.09
2019-01-25T20:23:03.422Z,99710.00
2019-01-25T20:25:31.989Z,99715.05
2019-01-25T20:28:00.848Z,99719.63
2019-01-25T20:30:31.555Z,99711.24
2019-01-25T20:33:02.040Z,99708.59
2019-01-25T20:35:33.826Z,99705.00
2019-01-25T20:38:03.082Z,99702.97
2019-01-25T20:40:31.713Z,99709.66
2019-01-25T20:43:00.301Z,99713.77
2019-01-25T20:45:31.418Z,99708.50
2019-01-25T20:47:59.961Z,99706.46
2019-01-25T20:50:30.062Z,99706.14
2019-01-25T20:52:58.623Z,99699.77
2019-01-25T20:55:27.201Z,99693.02
2019-01-25T20:57:57.160Z,99692.69
2019-01-25T21:00:28.069Z,99687.28
2019-01-25T21:02:56.673Z,99688.77
2019-01-25T21:05:25.252Z,99686.30
2019-01-25T21:07:53.807Z,99680.34
2019-01-25T21:10:23.241Z,99679.86
2019-01-25T21:12:51.800Z,99680.66
2019-01-25T21:15:21.960Z,99673.32
2019-01-25T21:17:50.525Z,99669.17
2019-01-25T21:20:24.844Z,99669.97
2019-01-25T21:22:53.401Z,99670.16
2019-01-25T21:25:21.978Z,99663.66
2019-01-25T21:27:50.533Z,99656.38
2019-01-25T21:30:21.512Z,99645.77
2019-01-25T21:32:50.090Z,99648.38
2019-01-25T21:35:18.667Z,99649.80
2019-01-25T21:37:47.216Z,99637.64
2019-01-25T21:40:18.352Z,99639.98
2019-01-25T21:42:46.914Z,99636.33
2019-01-25T21:45:18.147Z,99624.98
2019-01-25T21:47:47.864Z,99626.43
2019-01-25T21:50:19.574Z,99623.20
2019-01-25T21:52:48.528Z,99619.89
2019-01-25T21:55:17.619Z,99622.83
2019-01-25T21:57:47.531Z,99613.53
2019-01-25T22:00:22.178Z,99609.37
2019-01-25T22:02:51.595Z,99604.94
2019-01-25T22:05:21.034Z,99604.83
2019-01-25T22:07:50.852Z,99602.77
2019-01-25T22:10:22.822Z,99592.95
2019-01-25T22:12:51.504Z,99597.77
2019-01-25T22:15:20.904Z,99596.19
2019-01-25T22:17:50.709Z,99589.27
2019-01-25T22:20:22.334Z,99595.52
2019-01-25T22:22:51.974Z,99587.42
2019-01-25T22:25:21.842Z,99578.31
2019-01-25T22:27:52.906Z,99570.14
2019-01-25T22:30:23.682Z,99571.07
2019-01-25T22:32:53.566Z,99561.61
2019-01-25T22:35:23.239Z,99553.56
2019-01-25T22:37:53.252Z,99557.36
2019-01-25T22:40:25.053Z,99558.41
2019-01-25T22:42:56.141Z,99551.95
2019-01-25T22:45:27.313Z,99552.22
2019-01-25T22:47:58.201Z,99546.13
2019-01-25T22:50:29.452Z,99540.69
2019-01-25T22:52:59.854Z,99534.95
2019-01-25T22:55:29.824Z,99540.18
2019-01-25T22:57:59.290Z,99527.16
2019-01-25T23:01:08.388Z,99530.63
2019-01-25T23:04:10.964Z,99531.88
2019-01-25T23:06:43.421Z,99531.41
2019-01-25T23:09:27.726Z,99512.94
2019-01-25T23:11:57.174Z,99524.72
2019-01-25T23:14:26.794Z,99513.61
2019-01-25T23:16:55.401Z,99509.48
2019-01-25T23:19:25.575Z,99502.52
2019-01-25T23:21:55.864Z,99507.85
2019-01-25T23:24:25.867Z,99517.66
2019-01-25T23:26:54.896Z,99502.86
2019-01-25T23:29:24.196Z,99495.58
2019-01-25T23:31:54.478Z,99489.16
2019-01-25T23:34:23.859Z,99490.27
2019-01-25T23:36:53.571Z,99493.75
2019-01-25T23:39:22.819Z,99493.36
2019-01-25T23:41:52.071Z,99484.19
2019-01-25T23:44:21.993Z,99486.20
2019-01-25T23:46:50.776Z,99482.01
2019-01-25T23:49:20.456Z,99478.95
2019-01-25T23:51:49.115Z,99477.76
2019-01-25T23:54:18.781Z,99464.52
2019-01-25T23:56:48.562Z,99466.62
2019-01-25T23:59:18.302Z,99475.19
